^^
B2 Weather Station Historical Data
Daily Summary for November 22, 2018 Units:  English    Metric   Both
Daily Weekly Monthly Yearly Custom
  High: Low: Average:
Temperature: 42.1 °F 26.0 °F 33 °F
Dew Point: 36.1 °F 22.9 °F 29.7 °F
Humidity: 93% 78% 88%
Wind Speed: 17.3mph 0.0mph 7.1mph
Wind Gust: 11.1mph - -
Wind- - ESE
Pressure: 30.43 in 30.19 in -
Precipitation: 0.00 in    
Historical Graphs
 
 
Tabular Data for November 22, 2018
Time Temperature Dew Point Pressure Wind Wind Speed Wind Gust Humidity Rainfall Rate (Hourly) solar
00:04 27.8 °F 25.2 °F 30.42 in ENE 2.3 mph 1.6 mph 90% 0.00 in 0.00 W/m2
00:09 27.6 °F 25.3 °F 30.42 in ENE 2.3 mph 1.4 mph 91% 0.00 in 0.00 W/m2
00:14 27.5 °F 25.0 °F 30.42 in ENE 2.3 mph 0.9 mph 90% 0.00 in 0.00 W/m2
00:19 27.3 °F 24.8 °F 30.42 in ENE 2.3 mph 1.1 mph 90% 0.00 in 0.00 W/m2
00:24 27.3 °F 24.8 °F 30.42 in Calm     90% 0.00 in 0.00 W/m2
00:29 27.3 °F 24.8 °F 30.41 in Calm     90% 0.00 in 0.00 W/m2
00:34 27.2 °F 24.7 °F 30.41 in ENE 2.3 mph 1.4 mph 90% 0.00 in 0.00 W/m2
00:39 27.1 °F 24.6 °F 30.41 in ENE 3.5 mph 2.6 mph 90% 0.00 in 0.00 W/m2
00:44 27.0 °F 24.5 °F 30.41 in ENE 3.5 mph 2.3 mph 90% 0.00 in 0.00 W/m2
00:49 26.9 °F 24.4 °F 30.41 in ENE 3.5 mph 2.2 mph 90% 0.00 in 0.00 W/m2
00:54 26.8 °F 24.3 °F 30.41 in ENE 3.5 mph 2.0 mph 90% 0.00 in 0.00 W/m2
00:59 26.7 °F 24.2 °F 30.41 in East 3.5 mph 1.9 mph 90% 0.00 in 0.00 W/m2
01:04 26.6 °F 24.3 °F 30.41 in ENE 3.5 mph 2.8 mph 91% 0.00 in 0.00 W/m2
01:09 26.5 °F 24.2 °F 30.41 in ENE 3.5 mph 2.5 mph 91% 0.00 in 0.00 W/m2
01:14 26.5 °F 24.2 °F 30.41 in ENE 2.3 mph 1.6 mph 91% 0.00 in 0.00 W/m2
01:19 26.4 °F 24.1 °F 30.41 in ENE 3.5 mph 1.6 mph 91% 0.00 in 0.00 W/m2
01:24 26.4 °F 24.1 °F 30.41 in ENE 2.3 mph 1.3 mph 91% 0.00 in 0.00 W/m2
01:29 26.4 °F 24.1 °F 30.41 in ENE 2.3 mph 1.7 mph 91% 0.00 in 0.00 W/m2
01:34 26.4 °F 24.1 °F 30.41 in East 2.3 mph 1.0 mph 91% 0.00 in 0.00 W/m2
01:39 26.3 °F 24.0 °F 30.41 in East 2.3 mph 1.5 mph 91% 0.00 in 0.00 W/m2
01:44 26.3 °F 23.8 °F 30.41 in East 2.3 mph 1.3 mph 90% 0.00 in 0.00 W/m2
01:49 26.4 °F 23.9 °F 30.41 in East 2.3 mph 1.4 mph 90% 0.00 in 0.00 W/m2
01:54 26.4 °F 23.9 °F 30.41 in East 3.5 mph 2.3 mph 90% 0.00 in 0.00 W/m2
01:59 26.4 °F 23.9 °F 30.41 in East 2.3 mph 0.8 mph 90% 0.00 in 0.00 W/m2
02:04 26.5 °F 24.0 °F 30.42 in East 2.3 mph 1.4 mph 90% 0.00 in 0.00 W/m2
02:09 26.5 °F 24.0 °F 30.41 in East 2.3 mph 0.3 mph 90% 0.00 in 0.00 W/m2
02:14 26.4 °F 23.9 °F 30.42 in Calm   0.1 mph 90% 0.00 in 0.00 W/m2
02:19 26.4 °F 23.9 °F 30.41 in Calm     90% 0.00 in 0.00 W/m2
02:24 26.4 °F 23.9 °F 30.41 in Calm     90% 0.00 in 0.00 W/m2
02:29 26.3 °F 23.8 °F 30.42 in Calm     90% 0.00 in 0.00 W/m2
02:34 26.3 °F 23.5 °F 30.42 in Calm     89% 0.00 in 0.00 W/m2
02:39 26.3 °F 23.8 °F 30.42 in East 1.2 mph 0.4 mph 90% 0.00 in 0.00 W/m2
02:44 26.3 °F 23.5 °F 30.42 in East 1.2 mph 1.0 mph 89% 0.00 in 0.00 W/m2
02:49 26.3 °F 23.5 °F 30.42 in East 1.2 mph   89% 0.00 in 0.00 W/m2
02:54 26.3 °F 23.8 °F 30.42 in Calm     90% 0.00 in 0.00 W/m2
02:59 26.3 °F 23.8 °F 30.42 in Calm     90% 0.00 in 0.00 W/m2
03:04 26.2 °F 23.4 °F 30.42 in Calm     89% 0.00 in 0.00 W/m2
03:09 26.2 °F 23.4 °F 30.42 in Calm     89% 0.00 in 0.00 W/m2
03:14 26.1 °F 23.3 °F 30.42 in Calm     89% 0.00 in 0.00 W/m2
03:19 26.1 °F 23.3 °F 30.42 in Calm     89% 0.00 in 0.00 W/m2
03:24 26.2 °F 23.4 °F 30.41 in Calm     89% 0.00 in 0.00 W/m2
03:29 26.2 °F 23.4 °F 30.42 in Calm     89% 0.00 in 0.00 W/m2
03:34 26.2 °F 23.4 °F 30.42 in Calm     89% 0.00 in 0.00 W/m2
03:39 26.1 °F 23.3 °F 30.42 in Calm     89% 0.00 in 0.00 W/m2
03:44 26.0 °F 22.9 °F 30.42 in Calm     88% 0.00 in 0.00 W/m2
03:49 26.0 °F 23.2 °F 30.42 in Calm     89% 0.00 in 0.00 W/m2
03:54 26.1 °F 23.3 °F 30.41 in East 1.2 mph 0.8 mph 89% 0.00 in 0.00 W/m2
03:59 26.4 °F 23.9 °F 30.41 in East 3.5 mph 1.2 mph 90% 0.00 in 0.00 W/m2
04:04 26.7 °F 24.2 °F 30.42 in East 3.5 mph 1.7 mph 90% 0.00 in 0.00 W/m2
04:09 26.9 °F 24.4 °F 30.41 in East 3.5 mph 1.7 mph 90% 0.00 in 0.00 W/m2
04:14 27.0 °F 24.5 °F 30.42 in ENE 3.5 mph 2.0 mph 90% 0.00 in 0.00 W/m2
04:19 27.0 °F 24.5 °F 30.42 in ENE 4.0 mph 2.8 mph 90% 0.00 in 0.00 W/m2
04:24 27.0 °F 24.5 °F 30.42 in ENE 3.5 mph 2.3 mph 90% 0.00 in 0.00 W/m2
04:29 27.0 °F 24.5 °F 30.42 in ENE 4.6 mph 2.9 mph 90% 0.00 in 0.00 W/m2
04:34 27.0 °F 24.5 °F 30.42 in ENE 3.5 mph 2.0 mph 90% 0.00 in 0.00 W/m2
04:39 27.1 °F 24.6 °F 30.42 in East 3.5 mph 1.2 mph 90% 0.00 in 0.00 W/m2
04:44 27.2 °F 24.7 °F 30.42 in East 5.0 mph 3.7 mph 90% 0.00 in 0.00 W/m2
04:49 27.3 °F 24.8 °F 30.42 in East 4.6 mph 1.9 mph 90% 0.00 in 0.00 W/m2
04:54 27.5 °F 25.2 °F 30.43 in East 3.5 mph 2.0 mph 91% 0.00 in 0.00 W/m2
04:59 27.6 °F 25.1 °F 30.42 in ESE 3.5 mph 2.1 mph 90% 0.00 in 0.00 W/m2
05:04 27.8 °F 25.2 °F 30.43 in ESE 4.0 mph 3.0 mph 90% 0.00 in 0.00 W/m2
05:09 27.9 °F 25.3 °F 30.43 in East 3.5 mph 1.3 mph 90% 0.00 in 0.00 W/m2
05:14 28.0 °F 25.4 °F 30.42 in East 5.0 mph 2.1 mph 90% 0.00 in 0.00 W/m2
05:19 28.1 °F 25.5 °F 30.42 in East 5.0 mph 3.7 mph 90% 0.00 in 0.00 W/m2
05:24 28.2 °F 25.6 °F 30.42 in East 5.0 mph 2.3 mph 90% 0.00 in 0.00 W/m2
05:29 28.4 °F 25.6 °F 30.42 in East 5.8 mph 4.3 mph 89% 0.00 in 0.00 W/m2
05:34 28.5 °F 25.7 °F 30.43 in East 4.6 mph 3.6 mph 89% 0.00 in 0.00 W/m2
05:39 28.7 °F 25.9 °F 30.42 in ESE 4.6 mph 3.3 mph 89% 0.00 in 0.00 W/m2
05:44 28.8 °F 26.0 °F 30.42 in East 5.8 mph 3.6 mph 89% 0.00 in 0.00 W/m2
05:49 28.9 °F 26.1 °F 30.43 in ESE 4.6 mph 2.9 mph 89% 0.00 in 0.00 W/m2
05:54 29.0 °F 26.2 °F 30.42 in East 6.0 mph 2.8 mph 89% 0.00 in 0.00 W/m2
05:59 29.0 °F 25.9 °F 30.43 in ESE 5.0 mph 4.7 mph 88% 0.00 in 0.00 W/m2
06:04 28.9 °F 25.8 °F 30.43 in ESE 5.8 mph 4.4 mph 88% 0.00 in 0.00 W/m2
06:09 28.9 °F 25.8 °F 30.43 in ESE 5.8 mph 5.6 mph 88% 0.00 in 0.00 W/m2
06:14 29.0 °F 25.9 °F 30.43 in East 5.0 mph 4.5 mph 88% 0.00 in 0.00 W/m2
06:19 29.0 °F 26.2 °F 30.43 in ESE 5.8 mph 3.7 mph 89% 0.00 in 0.00 W/m2
06:24 29.0 °F 26.2 °F 30.43 in ENE 7.0 mph 4.9 mph 89% 0.00 in 0.00 W/m2
06:29 29.1 °F 26.3 °F 30.43 in East 8.0 mph 5.5 mph 89% 0.00 in 0.00 W/m2
06:34 29.1 °F 26.3 °F 30.43 in ESE 6.9 mph 4.7 mph 89% 0.00 in 0.00 W/m2
06:39 29.2 °F 26.4 °F 30.43 in ESE 7.0 mph 4.3 mph 89% 0.00 in 0.00 W/m2
06:44 29.3 °F 26.5 °F 30.43 in East 9.0 mph 4.9 mph 89% 0.00 in 0.00 W/m2
06:49 29.3 °F 26.5 °F 30.43 in ESE 5.8 mph 4.6 mph 89% 0.00 in 0.00 W/m2
06:54 29.4 °F 26.6 °F 30.43 in East 7.0 mph 6.0 mph 89% 0.00 in 0.00 W/m2
06:59 29.5 °F 26.7 °F 30.43 in East 9.2 mph 6.6 mph 89% 0.00 in 0.00 W/m2
07:04 29.5 °F 26.7 °F 30.43 in East 6.9 mph 5.2 mph 89% 0.00 in 5.00 W/m2
07:09 29.6 °F 26.8 °F 30.43 in East 7.0 mph 4.8 mph 89% 0.00 in 7.00 W/m2
07:14 29.6 °F 26.8 °F 30.43 in ESE 6.9 mph 3.9 mph 89% 0.00 in 11.00 W/m2
07:19 29.7 °F 26.9 °F 30.43 in SE 6.9 mph 4.7 mph 89% 0.00 in 14.00 W/m2
07:24 29.7 °F 26.9 °F 30.43 in East 6.9 mph 4.4 mph 89% 0.00 in 16.00 W/m2
07:29 29.8 °F 27.0 °F 30.43 in East 6.9 mph 6.3 mph 89% 0.00 in 21.00 W/m2
07:34 29.9 °F 27.1 °F 30.43 in East 8.1 mph 5.7 mph 89% 0.00 in 25.00 W/m2
07:39 30.0 °F 27.4 °F 30.43 in ESE 7.0 mph 4.5 mph 90% 0.00 in 28.00 W/m2
07:44 30.1 °F 27.3 °F 30.43 in ESE 9.2 mph 4.9 mph 89% 0.00 in 32.00 W/m2
07:49 30.2 °F 27.3 °F 30.43 in ESE 8.1 mph 6.0 mph 89% 0.00 in 35.00 W/m2
07:54 30.3 °F 27.4 °F 30.43 in East 5.0 mph 5.5 mph 89% 0.00 in 40.00 W/m2
07:59 30.4 °F 27.5 °F 30.43 in ESE 8.1 mph 5.9 mph 89% 0.00 in 42.00 W/m2
08:04 30.5 °F 27.6 °F 30.43 in ESE 8.1 mph 6.4 mph 89% 0.00 in 46.00 W/m2
08:09 30.6 °F 27.7 °F 30.43 in East 8.0 mph 5.1 mph 89% 0.00 in 53.00 W/m2
08:14 30.7 °F 27.8 °F 30.43 in ESE 9.2 mph 7.1 mph 89% 0.00 in 56.00 W/m2
08:19 30.7 °F 27.6 °F 30.43 in ESE 10.4 mph 6.2 mph 88% 0.00 in 63.00 W/m2
08:24 30.8 °F 27.7 °F 30.43 in East 9.2 mph 6.8 mph 88% 0.00 in 72.00 W/m2
08:29 30.9 °F 27.8 °F 30.43 in East 8.1 mph 6.3 mph 88% 0.00 in 79.00 W/m2
08:34 31.0 °F 27.9 °F 30.43 in ESE 9.0 mph 6.7 mph 88% 0.00 in 83.00 W/m2
08:39 31.1 °F 28.0 °F 30.43 in SE 6.9 mph 6.7 mph 88% 0.00 in 91.00 W/m2
08:44 31.3 °F 28.2 °F 30.43 in ESE 9.2 mph 7.1 mph 88% 0.00 in 100.00 W/m2
08:49 31.4 °F 28.3 °F 30.42 in ESE 9.2 mph 6.5 mph 88% 0.00 in 116.00 W/m2
08:54 31.6 °F 28.5 °F 30.42 in ESE 9.2 mph 6.3 mph 88% 0.00 in 125.00 W/m2
08:59 31.7 °F 28.6 °F 30.42 in ESE 9.2 mph 7.4 mph 88% 0.00 in 123.00 W/m2
09:04 31.9 °F 28.8 °F 30.42 in ESE 9.2 mph 7.7 mph 88% 0.00 in 132.00 W/m2
09:09 32.0 °F 28.6 °F 30.42 in SE 9.2 mph 9.0 mph 87% 0.00 in 142.00 W/m2
09:14 32.3 °F 29.1 °F 30.42 in ESE 9.2 mph 6.3 mph 88% 0.00 in 156.00 W/m2
09:19 32.4 °F 29.0 °F 30.42 in SSE 10.4 mph 7.0 mph 87% 0.00 in 172.00 W/m2
09:24 32.7 °F 29.3 °F 30.42 in East 8.1 mph 7.1 mph 87% 0.00 in 204.00 W/m2
09:29 33.0 °F 29.6 °F 30.41 in ESE 8.1 mph 7.0 mph 87% 0.00 in 285.00 W/m2
09:34 33.5 °F 30.0 °F 30.41 in ESE 10.4 mph 8.6 mph 87% 0.00 in 332.00 W/m2
09:39 33.9 °F 30.2 °F 30.41 in ESE 9.2 mph 6.8 mph 86% 0.00 in 329.00 W/m2
09:44 34.3 °F 30.3 °F 30.41 in ESE 9.2 mph 3.6 mph 85% 0.00 in 338.00 W/m2
09:49 34.6 °F 30.3 °F 30.41 in ESE 9.2 mph 3.3 mph 84% 0.00 in 350.00 W/m2
09:54 35.0 °F 30.9 °F 30.41 in SE 4.6 mph 3.2 mph 85% 0.00 in 350.00 W/m2
09:59 35.3 °F 30.7 °F 30.41 in ESE 8.1 mph 4.8 mph 83% 0.00 in 362.00 W/m2
10:04 35.5 °F 30.8 °F 30.41 in ESE 9.2 mph 5.5 mph 83% 0.00 in 374.00 W/m2
10:09 35.5 °F 30.8 °F 30.41 in ESE 8.1 mph 2.7 mph 83% 0.00 in 381.00 W/m2
10:14 35.8 °F 31.1 °F 30.41 in SE 9.2 mph 5.4 mph 83% 0.00 in 388.00 W/m2
10:19 36.0 °F 31.3 °F 30.41 in ESE 9.2 mph 4.1 mph 83% 0.00 in 397.00 W/m2
10:24 36.3 °F 31.6 °F 30.41 in ESE 11.5 mph 5.3 mph 83% 0.00 in 399.00 W/m2
10:29 36.8 °F 31.8 °F 30.40 in ESE 8.1 mph 3.2 mph 82% 0.00 in 410.00 W/m2
10:34 37.1 °F 32.1 °F 30.40 in ESE 8.1 mph 4.7 mph 82% 0.00 in 411.00 W/m2
10:39 37.4 °F 32.7 °F 30.40 in ESE 8.0 mph 2.5 mph 83% 0.00 in 417.00 W/m2
10:44 37.7 °F 32.4 °F 30.40 in ESE 11.5 mph 4.4 mph 81% 0.00 in 420.00 W/m2
10:49 37.7 °F 32.4 °F 30.39 in SE 9.2 mph 6.4 mph 81% 0.00 in 425.00 W/m2
10:54 37.9 °F 32.6 °F 30.39 in ESE 5.8 mph 3.5 mph 81% 0.00 in 434.00 W/m2
10:59 38.5 °F 33.2 °F 30.39 in SE 5.8 mph 3.9 mph 81% 0.00 in 439.00 W/m2
11:04 38.6 °F 33.0 °F 30.39 in SE 7.0 mph 3.7 mph 80% 0.00 in 438.00 W/m2
11:09 38.9 °F 32.9 °F 30.38 in SE 12.7 mph 7.8 mph 79% 0.00 in 439.00 W/m2
11:14 38.9 °F 33.3 °F 30.38 in SE 12.7 mph 6.9 mph 80% 0.00 in 445.00 W/m2
11:19 39.3 °F 34.0 °F 30.38 in ESE 11.5 mph 9.0 mph 81% 0.00 in 452.00 W/m2
11:24 39.3 °F 33.3 °F 30.38 in ESE 11.5 mph 6.0 mph 79% 0.00 in 452.00 W/m2
11:29 39.6 °F 33.9 °F 30.37 in SSE 12.7 mph 7.2 mph 80% 0.00 in 450.00 W/m2
11:34 39.8 °F 33.8 °F 30.36 in SE 10.4 mph 7.2 mph 79% 0.00 in 445.00 W/m2
11:40 40.0 °F 34.3 °F 30.36 in SE 11.5 mph 3.6 mph 80% 0.00 in 387.00 W/m2
11:44 40.4 °F 34.4 °F 30.36 in SE 11.5 mph 3.8 mph 79% 0.00 in 455.00 W/m2
11:49 40.6 °F 34.6 °F 30.36 in ESE 9.2 mph 5.9 mph 79% 0.00 in 455.00 W/m2
11:54 40.8 °F 34.8 °F 30.36 in ESE 11.5 mph 7.7 mph 79% 0.00 in 461.00 W/m2
11:59 41.0 °F 35.3 °F 30.35 in SE 11.5 mph 8.2 mph 80% 0.00 in 448.00 W/m2
12:04 40.9 °F 34.9 °F 30.35 in ESE 11.5 mph 8.3 mph 79% 0.00 in 457.00 W/m2
12:09 41.3 °F 35.6 °F 30.35 in SSE 11.5 mph 6.4 mph 80% 0.00 in 446.00 W/m2
12:14 41.5 °F 35.2 °F 30.34 in SE 11.5 mph 7.4 mph 78% 0.00 in 438.00 W/m2
12:19 41.6 °F 35.2 °F 30.34 in SE 14.0 mph 10.2 mph 78% 0.00 in 443.00 W/m2
12:24 41.7 °F 35.7 °F 30.33 in SE 11.5 mph 7.5 mph 79% 0.00 in 436.00 W/m2
12:29 41.5 °F 35.2 °F 30.33 in SSE 13.0 mph 10.2 mph 78% 0.00 in 434.00 W/m2
12:34 41.6 °F 35.6 °F 30.33 in SSE 17.3 mph 10.1 mph 79% 0.00 in 424.00 W/m2
12:39 41.5 °F 35.5 °F 30.33 in SE 12.7 mph 8.9 mph 79% 0.00 in 431.00 W/m2
12:44 41.7 °F 35.7 °F 30.33 in ESE 10.0 mph 7.3 mph 79% 0.00 in 425.00 W/m2
12:49 41.6 °F 35.2 °F 30.32 in SE 12.0 mph 9.1 mph 78% 0.00 in 422.00 W/m2
12:54 41.8 °F 35.8 °F 30.32 in SE 12.0 mph 10.6 mph 79% 0.00 in 418.00 W/m2
12:59 41.9 °F 35.9 °F 30.32 in SE 16.1 mph 8.5 mph 79% 0.00 in 404.00 W/m2
13:04 42.0 °F 36.0 °F 30.32 in ESE 13.8 mph 10.1 mph 79% 0.00 in 404.00 W/m2
13:09 41.7 °F 35.3 °F 30.32 in SE 12.7 mph 9.5 mph 78% 0.00 in 394.00 W/m2
13:14 41.8 °F 35.8 °F 30.31 in SE 11.5 mph 10.0 mph 79% 0.00 in 399.00 W/m2
13:19 41.7 °F 35.7 °F 30.31 in ESE 11.5 mph 10.1 mph 79% 0.00 in 385.00 W/m2
13:24 41.7 °F 35.7 °F 30.30 in SE 12.7 mph 9.6 mph 79% 0.00 in 373.00 W/m2
13:29 41.9 °F 35.9 °F 30.30 in ESE 10.4 mph 9.4 mph 79% 0.00 in 381.00 W/m2
13:34 41.9 °F 35.9 °F 30.30 in ESE 11.5 mph 10.3 mph 79% 0.00 in 362.00 W/m2
13:39 42.1 °F 36.1 °F 30.29 in SE 12.0 mph 8.6 mph 79% 0.00 in 346.00 W/m2
13:44 42.1 °F 36.1 °F 30.29 in ESE 11.5 mph 9.9 mph 79% 0.00 in 336.00 W/m2
13:49 41.8 °F 35.8 °F 30.29 in North 11.5 mph 10.0 mph 79% 0.00 in 323.00 W/m2
13:54 41.6 °F 35.6 °F 30.29 in ESE 12.7 mph 9.8 mph 79% 0.00 in 248.00 W/m2
13:59 41.6 °F 35.6 °F 30.29 in ESE 13.8 mph 8.8 mph 79% 0.00 in 283.00 W/m2
14:04 41.8 °F 36.1 °F 30.29 in ESE 13.0 mph 8.8 mph 80% 0.00 in 276.00 W/m2
14:09 41.6 °F 35.9 °F 30.29 in SE 12.7 mph 11.1 mph 80% 0.00 in 255.00 W/m2
14:14 41.3 °F 35.3 °F 30.29 in SE 11.5 mph 9.9 mph 79% 0.00 in 105.00 W/m2
14:19 41.4 °F 36.0 °F 30.29 in ESE 9.2 mph 7.6 mph 81% 0.00 in 239.00 W/m2
14:24 41.5 °F 36.1 °F 30.28 in ESE 10.4 mph 7.1 mph 81% 0.00 in 236.00 W/m2
14:29 41.5 °F 35.8 °F 30.28 in ESE 12.7 mph 9.4 mph 80% 0.00 in 239.00 W/m2
14:34 41.3 °F 35.6 °F 30.28 in SE 12.7 mph 10.8 mph 80% 0.00 in 236.00 W/m2
14:39 41.1 °F 35.7 °F 30.27 in North 11.5 mph 8.6 mph 81% 0.00 in 199.00 W/m2
14:44 41.1 °F 35.7 °F 30.27 in SE 12.7 mph 9.7 mph 81% 0.00 in 206.00 W/m2
14:49 40.9 °F 35.5 °F 30.27 in ESE 11.5 mph 7.9 mph 81% 0.00 in 188.00 W/m2
14:54 40.8 °F 35.4 °F 30.27 in North 11.5 mph 9.5 mph 81% 0.00 in 172.00 W/m2
14:59 40.6 °F 35.2 °F 30.27 in SE 11.5 mph 8.9 mph 81% 0.00 in 141.00 W/m2
15:04 40.4 °F 35.3 °F 30.27 in ESE 11.5 mph 7.1 mph 82% 0.00 in 142.00 W/m2
15:10 40.3 °F 35.2 °F 30.26 in SE 11.0 mph 8.3 mph 82% 0.00 in 127.00 W/m2
15:14 40.0 °F 34.9 °F 30.26 in ESE 11.5 mph 8.2 mph 82% 0.00 in 118.00 W/m2
15:19 39.7 °F 34.7 °F 30.26 in SE 11.5 mph 7.4 mph 82% 0.00 in 104.00 W/m2
15:25 39.5 °F 34.8 °F 30.26 in ESE 11.5 mph 8.5 mph 83% 0.00 in 95.00 W/m2
15:29 39.2 °F 34.5 °F 30.26 in ESE 11.5 mph 9.2 mph 83% 0.00 in 83.00 W/m2
15:34 38.9 °F 34.5 °F 30.27 in ESE 11.5 mph 10.6 mph 84% 0.00 in 72.00 W/m2
15:39 38.7 °F 34.3 °F 30.27 in ESE 11.5 mph 8.2 mph 84% 0.00 in 63.00 W/m2
15:44 38.4 °F 34.0 °F 30.27 in SE 10.4 mph 5.9 mph 84% 0.00 in 42.00 W/m2
15:49 38.2 °F 34.1 °F 30.27 in ESE 10.4 mph 6.3 mph 85% 0.00 in 35.00 W/m2
15:54 37.9 °F 33.8 °F 30.27 in ESE 9.2 mph 7.2 mph 85% 0.00 in 30.00 W/m2
15:59 37.6 °F 33.5 °F 30.27 in ESE 8.1 mph 8.0 mph 85% 0.00 in 25.00 W/m2
16:04 37.3 °F 33.5 °F 30.27 in ESE 10.4 mph 6.7 mph 86% 0.00 in 21.00 W/m2
16:10 37.0 °F 33.2 °F 30.26 in ESE 8.1 mph 6.3 mph 86% 0.00 in 16.00 W/m2
16:14 36.8 °F 33.0 °F 30.26 in ESE 9.2 mph 5.7 mph 86% 0.00 in 12.00 W/m2
16:19 36.5 °F 33.0 °F 30.26 in ESE 9.2 mph 6.3 mph 87% 0.00 in 9.00 W/m2
16:24 36.2 °F 32.7 °F 30.26 in ESE 9.2 mph 6.6 mph 87% 0.00 in 5.00 W/m2
16:29 36.0 °F 32.5 °F 30.26 in ESE 9.2 mph 5.8 mph 87% 0.00 in 0.00 W/m2
16:34 35.7 °F 32.5 °F 30.26 in ESE 9.2 mph 6.2 mph 88% 0.00 in 0.00 W/m2
16:39 35.5 °F 32.3 °F 30.26 in ESE 10.4 mph 7.3 mph 88% 0.00 in 0.00 W/m2
16:44 35.2 °F 32.0 °F 30.26 in ESE 9.2 mph 5.6 mph 88% 0.00 in 0.00 W/m2
16:49 35.1 °F 32.2 °F 30.26 in ESE 9.2 mph 6.1 mph 89% 0.00 in 0.00 W/m2
16:54 34.9 °F 32.0 °F 30.26 in ESE 8.1 mph 5.5 mph 89% 0.00 in 0.00 W/m2
16:59 34.7 °F 31.8 °F 30.26 in ESE 7.0 mph 5.6 mph 89% 0.00 in 0.00 W/m2
17:04 34.4 °F 31.5 °F 30.26 in ESE 6.9 mph 4.7 mph 89% 0.00 in 0.00 W/m2
17:09 34.2 °F 31.3 °F 30.26 in SE 8.1 mph 4.7 mph 89% 0.00 in 0.00 W/m2
17:14 34.0 °F 31.1 °F 30.26 in ESE 8.1 mph 5.9 mph 89% 0.00 in 0.00 W/m2
17:19 34.0 °F 31.4 °F 30.26 in ESE 8.1 mph 5.9 mph 90% 0.00 in 0.00 W/m2
17:24 33.8 °F 31.2 °F 30.26 in ESE 8.1 mph 5.7 mph 90% 0.00 in 0.00 W/m2
17:29 33.7 °F 31.1 °F 30.26 in ESE 8.1 mph 6.6 mph 90% 0.00 in 0.00 W/m2
17:34 33.5 °F 30.9 °F 30.26 in ESE 5.8 mph 4.8 mph 90% 0.00 in 0.00 W/m2
17:39 33.3 °F 30.7 °F 30.26 in ESE 9.2 mph 5.7 mph 90% 0.00 in 0.00 W/m2
17:44 33.2 °F 30.6 °F 30.26 in East 9.2 mph 5.7 mph 90% 0.00 in 0.00 W/m2
17:49 33.2 °F 30.9 °F 30.26 in SE 8.1 mph 7.0 mph 91% 0.00 in 0.00 W/m2
17:54 33.1 °F 30.8 °F 30.26 in ESE 10.4 mph 6.4 mph 91% 0.00 in 0.00 W/m2
17:59 32.9 °F 30.3 °F 30.26 in ESE 8.1 mph 5.2 mph 90% 0.00 in 0.00 W/m2
18:04 32.8 °F 30.5 °F 30.26 in ESE 8.1 mph 4.7 mph 91% 0.00 in 0.00 W/m2
18:09 32.8 °F 30.5 °F 30.26 in ESE 9.2 mph 6.3 mph 91% 0.00 in 0.00 W/m2
18:14 32.7 °F 30.4 °F 30.26 in ESE 9.2 mph 5.6 mph 91% 0.00 in 0.00 W/m2
18:19 32.8 °F 30.5 °F 30.26 in ESE 8.1 mph 4.7 mph 91% 0.00 in 0.00 W/m2
18:24 32.6 °F 30.3 °F 30.26 in ESE 6.9 mph 5.6 mph 91% 0.00 in 0.00 W/m2
18:29 32.5 °F 30.2 °F 30.26 in SE 6.9 mph 4.9 mph 91% 0.00 in 0.00 W/m2
18:34 32.5 °F 30.2 °F 30.26 in ESE 8.1 mph 5.9 mph 91% 0.00 in 0.00 W/m2
18:39 32.5 °F 30.4 °F 30.26 in ESE 8.1 mph 4.7 mph 92% 0.00 in 0.00 W/m2
18:44 32.4 °F 30.3 °F 30.26 in ESE 8.1 mph 5.3 mph 92% 0.00 in 0.00 W/m2
18:49 32.4 °F 30.3 °F 30.26 in SE 6.0 mph 5.0 mph 92% 0.00 in 0.00 W/m2
18:54 32.4 °F 30.3 °F 30.26 in SE 7.0 mph 4.7 mph 92% 0.00 in 0.00 W/m2
18:59 32.5 °F 30.4 °F 30.26 in SE 8.1 mph 5.6 mph 92% 0.00 in 0.00 W/m2
19:04 32.6 °F 30.5 °F 30.26 in SE 6.9 mph 5.4 mph 92% 0.00 in 0.00 W/m2
19:09 32.6 °F 30.5 °F 30.26 in ESE 8.1 mph 6.3 mph 92% 0.00 in 0.00 W/m2
19:15 32.7 °F 30.6 °F 30.25 in SE 7.0 mph 4.4 mph 92% 0.00 in 0.00 W/m2
19:19 32.8 °F 30.7 °F 30.25 in ESE 8.1 mph 4.8 mph 92% 0.00 in 0.00 W/m2
19:24 32.9 °F 30.8 °F 30.25 in ESE 7.0 mph 6.3 mph 92% 0.00 in 0.00 W/m2
19:29 33.0 °F 30.9 °F 30.25 in SE 10.4 mph 7.0 mph 92% 0.00 in 0.00 W/m2
19:34 33.2 °F 31.1 °F 30.25 in ESE 9.0 mph 7.3 mph 92% 0.00 in 0.00 W/m2
19:39 33.3 °F 31.2 °F 30.25 in SE 9.2 mph 5.8 mph 92% 0.00 in 0.00 W/m2
19:44 33.3 °F 31.2 °F 30.26 in SE 8.1 mph 6.9 mph 92% 0.00 in 0.00 W/m2
19:49 33.4 °F 31.3 °F 30.26 in SE 9.2 mph 6.3 mph 92% 0.00 in 0.00 W/m2
19:54 33.4 °F 31.3 °F 30.25 in SE 7.0 mph 6.1 mph 92% 0.00 in 0.00 W/m2
19:59 33.4 °F 31.3 °F 30.25 in SE 8.1 mph 5.4 mph 92% 0.00 in 0.00 W/m2
20:04 33.4 °F 31.3 °F 30.25 in SE 8.1 mph 4.8 mph 92% 0.00 in 0.00 W/m2
20:09 33.4 °F 31.3 °F 30.25 in SE 8.1 mph 5.4 mph 92% 0.00 in 0.00 W/m2
20:14 33.4 °F 31.3 °F 30.25 in SE 6.9 mph 5.8 mph 92% 0.00 in 0.00 W/m2
20:19 33.4 °F 31.3 °F 30.25 in SE 5.0 mph 4.5 mph 92% 0.00 in 0.00 W/m2
20:24 33.3 °F 31.2 °F 30.25 in SE 5.8 mph 4.6 mph 92% 0.00 in 0.00 W/m2
20:29 33.2 °F 31.1 °F 30.25 in SE 6.9 mph 3.9 mph 92% 0.00 in 0.00 W/m2
20:34 33.3 °F 31.2 °F 30.25 in SE 6.9 mph 4.5 mph 92% 0.00 in 0.00 W/m2
20:39 33.4 °F 31.3 °F 30.25 in SE 7.0 mph 5.2 mph 92% 0.00 in 0.00 W/m2
20:44 33.4 °F 31.3 °F 30.25 in SE 9.2 mph 4.4 mph 92% 0.00 in 0.00 W/m2
20:49 33.4 °F 31.3 °F 30.25 in SE 6.9 mph 6.0 mph 92% 0.00 in 0.00 W/m2
20:54 33.4 °F 31.3 °F 30.25 in SE 9.2 mph 5.6 mph 92% 0.00 in 0.00 W/m2
20:59 33.5 °F 31.4 °F 30.25 in ESE 10.0 mph 6.0 mph 92% 0.00 in 0.00 W/m2
21:04 33.6 °F 31.5 °F 30.25 in SE 9.2 mph 5.8 mph 92% 0.00 in 0.00 W/m2
21:09 33.7 °F 31.6 °F 30.25 in ESE 8.1 mph 4.4 mph 92% 0.00 in 0.00 W/m2
21:15 33.8 °F 31.7 °F 30.25 in SE 6.9 mph 5.2 mph 92% 0.00 in 0.00 W/m2
21:19 33.8 °F 31.7 °F 30.25 in SE 6.9 mph 4.0 mph 92% 0.00 in 0.00 W/m2
21:24 33.8 °F 31.7 °F 30.25 in SE 5.8 mph 4.3 mph 92% 0.00 in 0.00 W/m2
21:29 33.8 °F 31.7 °F 30.25 in SE 6.9 mph 5.2 mph 92% 0.00 in 0.00 W/m2
21:34 33.9 °F 31.8 °F 30.25 in East 6.9 mph 5.4 mph 92% 0.00 in 0.00 W/m2
21:39 33.9 °F 31.8 °F 30.24 in SE 6.9 mph 4.9 mph 92% 0.00 in 0.00 W/m2
21:44 33.8 °F 31.7 °F 30.24 in SE 8.1 mph 6.5 mph 92% 0.00 in 0.00 W/m2
21:49 33.9 °F 31.8 °F 30.24 in ESE 6.9 mph 6.2 mph 92% 0.00 in 0.00 W/m2
21:54 33.8 °F 31.7 °F 30.24 in SE 6.9 mph 4.7 mph 92% 0.00 in 0.00 W/m2
21:59 33.7 °F 31.6 °F 30.24 in SE 6.9 mph 5.1 mph 92% 0.00 in 0.00 W/m2
22:04 33.4 °F 31.1 °F 30.24 in ESE 4.6 mph 3.7 mph 91% 0.00 in 0.00 W/m2
22:09 33.2 °F 31.1 °F 30.23 in ESE 3.5 mph 3.3 mph 92% 0.00 in 0.00 W/m2
22:14 32.9 °F 30.6 °F 30.23 in SE 4.6 mph 3.3 mph 91% 0.00 in 0.00 W/m2
22:19 32.8 °F 30.7 °F 30.23 in ESE 4.6 mph 3.6 mph 92% 0.00 in 0.00 W/m2
22:24 32.6 °F 30.5 °F 30.23 in SE 5.0 mph 3.6 mph 92% 0.00 in 0.00 W/m2
22:29 32.5 °F 30.4 °F 30.23 in SE 3.5 mph 3.4 mph 92% 0.00 in 0.00 W/m2
22:34 32.4 °F 30.3 °F 30.22 in SE 3.5 mph 3.0 mph 92% 0.00 in 0.00 W/m2
22:39 32.3 °F 30.2 °F 30.22 in SE 4.6 mph 3.9 mph 92% 0.00 in 0.00 W/m2
22:44 32.4 °F 30.6 °F 30.22 in SE 5.8 mph 4.6 mph 93% 0.00 in 0.00 W/m2
22:49 32.4 °F 30.3 °F 30.22 in SE 5.0 mph 3.1 mph 92% 0.00 in 0.00 W/m2
22:54 32.3 °F 30.5 °F 30.22 in ESE 4.0 mph 4.4 mph 93% 0.00 in 0.00 W/m2
22:59 32.3 °F 30.5 °F 30.22 in SE 4.0 mph 4.2 mph 93% 0.00 in 0.00 W/m2
23:04 32.3 °F 30.5 °F 30.22 in SE 5.0 mph 3.8 mph 93% 0.00 in 0.00 W/m2
23:09 32.3 °F 30.5 °F 30.22 in SE 4.6 mph 2.9 mph 93% 0.00 in 0.00 W/m2
23:14 32.1 °F 30.3 °F 30.21 in SE 4.0 mph 3.5 mph 93% 0.00 in 0.00 W/m2
23:20 32.0 °F 30.2 °F 30.21 in ESE 3.5 mph 2.7 mph 93% 0.00 in 0.00 W/m2
23:25 32.0 °F 30.2 °F 30.21 in SE 4.6 mph 3.4 mph 93% 0.00 in 0.00 W/m2
23:29 32.1 °F 30.3 °F 30.21 in SE 5.8 mph 4.0 mph 93% 0.00 in 0.00 W/m2
23:34 32.3 °F 30.5 °F 30.20 in SE 4.6 mph 3.9 mph 93% 0.00 in 0.00 W/m2
23:39 32.4 °F 30.6 °F 30.20 in SE 5.0 mph 3.7 mph 93% 0.00 in 0.00 W/m2
23:44 32.5 °F 30.7 °F 30.20 in SE 4.6 mph 3.1 mph 93% 0.00 in 0.00 W/m2
23:49 32.5 °F 30.7 °F 30.20 in SE 5.0 mph 2.9 mph 93% 0.00 in 0.00 W/m2
23:54 32.5 °F 30.7 °F 30.19 in SE 4.6 mph 3.3 mph 93% 0.00 in 0.00 W/m2
23:59 32.5 °F 30.7 °F 30.19 in ESE 4.6 mph 3.6 mph 93% 0.00 in 0.00 W/m2
Bourbonnais, Illinois, USA
Compliments of Weather Underground - 2 mb